createdAt,value
2023-01-13T00:01:46.477Z,86.47
2023-01-13T00:04:31.949Z,86.47
2023-01-13T00:07:17.356Z,87.05
2023-01-13T00:10:02.599Z,86.94
2023-01-13T00:12:48.117Z,87.02
2023-01-13T00:15:33.960Z,86.51
2023-01-13T00:18:19.405Z,86.08
2023-01-13T00:21:08.088Z,86.54
2023-01-13T00:23:55.259Z,87.31
2023-01-13T00:26:41.075Z,86.72
2023-01-13T00:29:26.753Z,86.53
2023-01-13T00:32:12.217Z,86.94
2023-01-13T00:34:58.887Z,86.38
2023-01-13T00:37:44.414Z,87.20
2023-01-13T00:40:29.794Z,86.54
2023-01-13T00:43:24.233Z,86.60
2023-01-13T00:46:12.273Z,87.04
2023-01-13T00:48:57.910Z,86.67
2023-01-13T00:51:43.266Z,87.20
2023-01-13T00:54:28.727Z,86.63
2023-01-13T00:57:15.409Z,86.94
2023-01-13T01:00:00.827Z,86.43
2023-01-13T01:02:46.198Z,87.07
2023-01-13T01:05:33.648Z,87.24
2023-01-13T01:08:19.368Z,86.51
2023-01-13T01:11:07.657Z,87.26
2023-01-13T01:13:56.061Z,87.47
2023-01-13T01:16:42.292Z,87.45
2023-01-13T01:19:28.212Z,87.58
2023-01-13T01:22:13.600Z,87.27
2023-01-13T01:24:58.936Z,86.93
2023-01-13T01:27:44.152Z,87.08
2023-01-13T01:30:29.985Z,86.99
2023-01-13T01:33:16.854Z,87.04
2023-01-13T01:36:03.775Z,87.03
2023-01-13T01:38:50.044Z,86.76
2023-01-13T01:41:36.747Z,86.96
2023-01-13T01:44:41.547Z,86.79
2023-01-13T01:47:30.580Z,86.94
2023-01-13T01:50:19.966Z,86.77
2023-01-13T01:53:15.805Z,86.73
2023-01-13T01:56:02.383Z,87.38
2023-01-13T01:58:51.193Z,86.90
2023-01-13T02:01:37.728Z,86.95
2023-01-13T02:04:31.848Z,87.13
2023-01-13T02:07:23.881Z,86.86
2023-01-13T02:10:12.931Z,87.34
2023-01-13T02:13:02.881Z,87.18
2023-01-13T02:16:02.453Z,87.19
2023-01-13T02:19:11.354Z,86.92
2023-01-13T02:22:19.608Z,87.00
2023-01-13T02:25:17.272Z,87.11
2023-01-13T02:28:22.182Z,86.60
2023-01-13T02:31:33.317Z,87.39
2023-01-13T02:34:51.456Z,87.02
2023-01-13T02:37:41.458Z,86.76
2023-01-13T02:40:37.773Z,86.65
2023-01-13T02:43:57.535Z,86.48
2023-01-13T02:46:48.974Z,86.30
2023-01-13T02:49:39.281Z,86.56
2023-01-13T02:52:57.219Z,86.82
2023-01-13T02:55:53.754Z,87.34
2023-01-13T02:58:42.099Z,87.41
2023-01-13T03:01:27.850Z,86.90
2023-01-13T03:04:32.932Z,87.23
2023-01-13T03:07:24.542Z,87.55
2023-01-13T03:10:27.971Z,87.43
2023-01-13T03:13:35.762Z,86.77
2023-01-13T03:16:28.527Z,87.81
2023-01-13T03:19:22.871Z,87.44
2023-01-13T03:22:28.383Z,87.24
2023-01-13T03:25:37.149Z,87.50
2023-01-13T03:28:40.893Z,86.98
2023-01-13T03:31:31.775Z,87.37
2023-01-13T03:34:22.430Z,87.27
2023-01-13T03:37:09.376Z,86.91
2023-01-13T03:40:00.206Z,87.20
2023-01-13T03:43:11.838Z,87.11
2023-01-13T03:46:03.349Z,86.69
2023-01-13T03:48:54.965Z,87.43
2023-01-13T03:51:43.661Z,87.30
2023-01-13T03:54:32.561Z,87.42
2023-01-13T03:57:23.052Z,87.49
2023-01-13T04:00:12.141Z,87.11
2023-01-13T04:03:04.021Z,86.92
2023-01-13T04:05:57.807Z,87.37
2023-01-13T04:08:51.161Z,86.86
2023-01-13T04:11:43.095Z,86.76
2023-01-13T04:14:29.423Z,87.13
2023-01-13T04:17:16.386Z,87.40
2023-01-13T04:20:02.008Z,87.31
2023-01-13T04:22:47.426Z,87.37
2023-01-13T04:25:33.086Z,87.51
2023-01-13T04:28:20.272Z,87.21
2023-01-13T04:31:06.135Z,87.75
2023-01-13T04:33:51.177Z,87.43
2023-01-13T04:36:36.867Z,87.09
2023-01-13T04:39:22.130Z,87.58
2023-01-13T04:42:08.038Z,87.27
2023-01-13T04:44:53.460Z,87.26
2023-01-13T04:47:39.400Z,87.67
2023-01-13T04:50:25.855Z,86.73
2023-01-13T04:53:11.427Z,87.26
2023-01-13T04:55:56.874Z,87.15
2023-01-13T04:58:42.260Z,87.39
2023-01-13T05:01:28.421Z,87.50
2023-01-13T05:04:15.558Z,88.03
2023-01-13T05:07:01.364Z,87.33
2023-01-13T05:09:46.947Z,88.09
2023-01-13T05:12:51.465Z,88.63
2023-01-13T05:15:55.626Z,88.04
2023-01-13T05:18:40.866Z,88.46
2023-01-13T05:21:44.863Z,87.80
2023-01-13T05:24:56.413Z,87.50
2023-01-13T05:27:42.051Z,87.47
2023-01-13T05:30:30.263Z,87.81
2023-01-13T05:33:17.796Z,88.01
2023-01-13T05:36:03.940Z,88.02
2023-01-13T05:38:51.564Z,88.06
2023-01-13T05:41:55.800Z,87.29
2023-01-13T05:44:41.007Z,88.32
2023-01-13T05:47:26.793Z,87.96
2023-01-13T05:50:12.163Z,88.69
2023-01-13T05:52:57.762Z,88.29
2023-01-13T05:55:44.056Z,88.45
2023-01-13T05:58:29.536Z,88.43
2023-01-13T06:01:14.871Z,88.47
2023-01-13T06:04:00.194Z,88.15
2023-01-13T06:06:45.461Z,88.61
2023-01-13T06:09:30.822Z,88.79
2023-01-13T06:12:16.089Z,88.40
2023-01-13T06:15:01.565Z,88.19
2023-01-13T06:17:47.338Z,87.92
2023-01-13T06:20:33.302Z,88.43
2023-01-13T06:23:19.153Z,88.58
2023-01-13T06:26:12.064Z,88.36
2023-01-13T06:28:57.401Z,88.72
2023-01-13T06:31:43.287Z,88.17
2023-01-13T06:34:29.593Z,88.77
2023-01-13T06:37:19.982Z,88.47
2023-01-13T06:40:07.411Z,89.21
2023-01-13T06:43:16.340Z,88.29
2023-01-13T06:46:03.058Z,88.77
2023-01-13T06:48:52.156Z,89.05
2023-01-13T06:51:39.402Z,88.28
2023-01-13T06:54:25.834Z,88.89
2023-01-13T06:57:13.158Z,88.70
2023-01-13T06:59:59.394Z,88.92
2023-01-13T07:02:44.889Z,88.65
2023-01-13T07:05:30.243Z,89.03
2023-01-13T07:08:15.520Z,89.22
2023-01-13T07:11:04.360Z,89.33
2023-01-13T07:14:08.566Z,88.49
2023-01-13T07:16:54.324Z,89.51
2023-01-13T07:19:39.692Z,89.19
2023-01-13T07:22:25.319Z,89.02
2023-01-13T07:25:11.388Z,89.28
2023-01-13T07:27:57.541Z,89.22
2023-01-13T07:30:42.858Z,88.79
2023-01-13T07:33:28.520Z,88.26
2023-01-13T07:36:15.051Z,88.75
2023-01-13T07:39:00.554Z,88.35
2023-01-13T07:42:05.036Z,88.82
2023-01-13T07:44:50.667Z,88.84
2023-01-13T07:47:36.058Z,88.71
2023-01-13T07:50:23.630Z,88.02
2023-01-13T07:53:09.040Z,88.88
2023-01-13T07:55:56.977Z,88.72
2023-01-13T07:58:42.758Z,88.54
2023-01-13T08:01:28.782Z,88.38
2023-01-13T08:04:14.475Z,88.40
2023-01-13T08:07:00.186Z,88.21
2023-01-13T08:09:45.564Z,87.89
2023-01-13T08:12:54.014Z,87.84
2023-01-13T08:15:42.983Z,87.85
2023-01-13T08:18:28.395Z,88.86
2023-01-13T08:21:15.049Z,88.53
2023-01-13T08:24:00.986Z,88.53
2023-01-13T08:26:46.382Z,88.72
2023-01-13T08:29:31.621Z,88.52
2023-01-13T08:32:17.341Z,88.20
2023-01-13T08:35:03.100Z,88.60
2023-01-13T08:37:49.066Z,88.33
2023-01-13T08:40:34.700Z,88.65
2023-01-13T08:43:20.285Z,87.96
2023-01-13T08:46:07.287Z,87.68
2023-01-13T08:48:52.872Z,88.09
2023-01-13T08:51:38.606Z,88.11
2023-01-13T08:54:24.183Z,87.41
2023-01-13T08:57:09.614Z,87.93
2023-01-13T08:59:55.093Z,87.53
2023-01-13T09:02:40.660Z,87.57
2023-01-13T09:05:26.338Z,87.79
2023-01-13T09:08:12.580Z,87.67
2023-01-13T09:10:58.246Z,87.54
2023-01-13T09:13:43.696Z,88.13
2023-01-13T09:16:29.255Z,87.73
2023-01-13T09:19:15.024Z,87.48
2023-01-13T09:22:01.243Z,88.23
2023-01-13T09:24:46.636Z,88.91
2023-01-13T09:27:32.303Z,88.22
2023-01-13T09:30:18.164Z,88.15
2023-01-13T09:33:22.174Z,87.86
2023-01-13T09:36:07.977Z,87.28
2023-01-13T09:38:53.710Z,87.56
2023-01-13T09:42:02.804Z,88.15
2023-01-13T09:45:05.195Z,87.83
2023-01-13T09:47:55.965Z,87.73
2023-01-13T09:50:48.301Z,87.38
2023-01-13T09:53:38.637Z,87.81
2023-01-13T09:56:25.804Z,88.05
2023-01-13T09:59:12.344Z,88.04
2023-01-13T10:02:08.046Z,87.85
2023-01-13T10:05:20.981Z,87.66
2023-01-13T10:08:13.385Z,87.41
2023-01-13T10:11:23.892Z,87.27
2023-01-13T10:14:18.526Z,87.78
2023-01-13T10:17:22.557Z,87.76
2023-01-13T10:20:31.085Z,87.69
2023-01-13T10:23:39.063Z,87.65
2023-01-13T10:26:50.417Z,87.79
2023-01-13T10:29:36.808Z,88.04
2023-01-13T10:32:22.565Z,88.31
2023-01-13T10:35:08.732Z,88.27
2023-01-13T10:37:57.581Z,88.19
2023-01-13T10:40:52.091Z,87.52
2023-01-13T10:43:37.932Z,87.71
2023-01-13T10:46:23.938Z,87.40
2023-01-13T10:49:38.662Z,88.35
2023-01-13T10:52:27.371Z,88.38
2023-01-13T10:55:34.317Z,88.21
2023-01-13T10:58:21.140Z,88.11
2023-01-13T11:01:09.504Z,87.94
2023-01-13T11:03:55.795Z,87.86
2023-01-13T11:06:46.035Z,88.83
2023-01-13T11:09:32.875Z,88.68
2023-01-13T11:12:34.026Z,88.41
2023-01-13T11:15:34.498Z,88.24
2023-01-13T11:18:25.586Z,88.60
2023-01-13T11:21:43.717Z,88.89
2023-01-13T11:24:50.777Z,88.42
2023-01-13T11:28:11.006Z,89.04
2023-01-13T11:31:05.577Z,88.22
2023-01-13T11:34:03.507Z,88.33
2023-01-13T11:36:55.619Z,88.09
2023-01-13T11:40:26.296Z,88.54
2023-01-13T11:43:16.825Z,88.48
2023-01-13T11:46:02.783Z,88.32
2023-01-13T11:48:48.483Z,88.31
2023-01-13T11:51:50.506Z,88.44
2023-01-13T11:54:54.820Z,88.66
2023-01-13T11:58:03.477Z,88.41
2023-01-13T12:01:23.411Z,88.87
2023-01-13T12:04:40.187Z,88.53
2023-01-13T12:07:47.999Z,88.39
2023-01-13T12:11:00.407Z,88.26
2023-01-13T12:14:09.380Z,88.99
2023-01-13T12:16:56.323Z,88.72
2023-01-13T12:19:51.673Z,88.93
2023-01-13T12:22:38.662Z,88.66
2023-01-13T12:25:30.955Z,88.52
2023-01-13T12:28:23.186Z,88.60
2023-01-13T12:31:09.870Z,88.24
2023-01-13T12:34:19.957Z,88.32
2023-01-13T12:37:24.258Z,88.24
2023-01-13T12:40:28.350Z,87.72
2023-01-13T12:43:41.543Z,88.21
2023-01-13T12:46:27.017Z,87.89
2023-01-13T12:49:24.490Z,87.69
2023-01-13T12:52:14.447Z,87.89
2023-01-13T12:55:03.833Z,87.91
2023-01-13T12:58:04.740Z,88.07
2023-01-13T13:01:13.715Z,88.18
2023-01-13T13:04:41.089Z,88.95
2023-01-13T13:07:37.186Z,88.17
2023-01-13T13:10:31.765Z,87.67
2023-01-13T13:13:47.197Z,87.58
2023-01-13T13:16:36.238Z,87.34
2023-01-13T13:19:21.790Z,87.71
2023-01-13T13:22:07.400Z,87.56
2023-01-13T13:24:56.208Z,87.13
2023-01-13T13:27:48.998Z,87.16
2023-01-13T13:30:37.180Z,87.41
2023-01-13T13:33:31.996Z,87.61
2023-01-13T13:36:30.681Z,87.70
2023-01-13T13:39:42.374Z,87.60
2023-01-13T13:42:39.199Z,87.97
2023-01-13T13:45:45.455Z,87.73
2023-01-13T13:48:31.296Z,88.06
2023-01-13T13:51:22.334Z,88.04
2023-01-13T13:54:18.291Z,87.88
2023-01-13T13:57:03.777Z,87.67
2023-01-13T13:59:57.902Z,87.69
2023-01-13T14:03:22.511Z,88.01
2023-01-13T14:06:24.302Z,87.63
2023-01-13T14:09:17.361Z,87.15
2023-01-13T14:12:08.656Z,86.95
2023-01-13T14:15:00.142Z,87.96
2023-01-13T14:17:45.654Z,87.72
2023-01-13T14:20:31.639Z,87.12
2023-01-13T14:23:18.373Z,87.68
2023-01-13T14:26:08.960Z,87.28
2023-01-13T14:28:56.451Z,87.37
2023-01-13T14:31:43.511Z,87.95
2023-01-13T14:34:31.683Z,87.47
2023-01-13T14:37:24.095Z,88.08
2023-01-13T14:40:44.621Z,87.96
2023-01-13T14:43:30.021Z,88.02
2023-01-13T14:46:17.728Z,88.09
2023-01-13T14:49:04.048Z,87.97
2023-01-13T14:51:50.545Z,88.09
2023-01-13T14:54:53.772Z,88.96
2023-01-13T14:57:41.696Z,88.53
2023-01-13T15:00:27.317Z,88.53
2023-01-13T15:03:21.286Z,88.49
2023-01-13T15:06:22.631Z,88.96
2023-01-13T15:09:13.149Z,88.42
2023-01-13T15:12:00.085Z,87.77
2023-01-13T15:14:50.275Z,88.47
2023-01-13T15:17:35.612Z,88.53
2023-01-13T15:20:23.065Z,87.79
2023-01-13T15:23:09.183Z,88.05
2023-01-13T15:25:54.673Z,88.32
2023-01-13T15:28:40.037Z,87.74
2023-01-13T15:31:26.400Z,87.78
2023-01-13T15:34:11.758Z,87.56
2023-01-13T15:36:57.136Z,87.63
2023-01-13T15:39:42.901Z,87.74
2023-01-13T15:42:47.228Z,87.54
2023-01-13T15:45:54.210Z,87.56
2023-01-13T15:48:40.649Z,88.01
2023-01-13T15:51:25.935Z,88.12
2023-01-13T15:54:12.043Z,88.01
2023-01-13T15:56:58.130Z,87.75
2023-01-13T15:59:43.859Z,88.14
2023-01-13T16:02:30.939Z,87.43
2023-01-13T16:05:16.752Z,87.24
2023-01-13T16:08:02.271Z,88.03
2023-01-13T16:10:48.836Z,87.72
2023-01-13T16:13:34.783Z,87.66
2023-01-13T16:16:23.045Z,87.75
2023-01-13T16:19:10.783Z,87.80
2023-01-13T16:21:59.786Z,87.45
2023-01-13T16:24:45.576Z,87.78
2023-01-13T16:27:31.069Z,87.59
2023-01-13T16:30:24.419Z,88.19
2023-01-13T16:33:10.142Z,87.43
2023-01-13T16:36:10.687Z,87.26
2023-01-13T16:38:58.364Z,87.96
2023-01-13T16:41:43.913Z,88.15
2023-01-13T16:44:29.416Z,88.15
2023-01-13T16:47:17.682Z,88.11
2023-01-13T16:50:04.021Z,88.12
2023-01-13T16:52:49.804Z,88.31
2023-01-13T16:55:36.699Z,88.15
2023-01-13T16:58:23.388Z,87.98
2023-01-13T17:01:18.801Z,87.44
2023-01-13T17:04:05.317Z,87.88
2023-01-13T17:07:04.518Z,87.33
2023-01-13T17:09:50.191Z,88.01
2023-01-13T17:12:36.121Z,88.20
2023-01-13T17:15:21.833Z,87.77
2023-01-13T17:18:07.310Z,87.48
2023-01-13T17:20:52.871Z,87.98
2023-01-13T17:23:38.377Z,87.19
2023-01-13T17:26:37.408Z,87.13
2023-01-13T17:29:25.738Z,87.32
2023-01-13T17:32:16.739Z,87.19
2023-01-13T17:35:02.736Z,87.40
2023-01-13T17:37:48.281Z,87.77
2023-01-13T17:40:33.682Z,87.51
2023-01-13T17:43:19.106Z,87.21
2023-01-13T17:46:12.573Z,87.50
2023-01-13T17:48:58.065Z,87.06
2023-01-13T17:51:43.399Z,87.76
2023-01-13T17:54:28.992Z,87.01
2023-01-13T17:57:14.148Z,87.82
2023-01-13T17:59:59.802Z,87.17
2023-01-13T18:02:45.853Z,87.27
2023-01-13T18:05:34.109Z,87.25
2023-01-13T18:08:19.753Z,87.48
2023-01-13T18:11:06.332Z,87.51
2023-01-13T18:13:57.683Z,87.14
2023-01-13T18:16:44.158Z,87.13
2023-01-13T18:19:48.328Z,87.41
2023-01-13T18:22:52.442Z,87.84
2023-01-13T18:25:58.411Z,88.32
2023-01-13T18:28:44.168Z,88.11
2023-01-13T18:31:30.893Z,87.98
2023-01-13T18:34:16.647Z,88.46
2023-01-13T18:37:02.417Z,88.03
2023-01-13T18:39:48.163Z,88.40
2023-01-13T18:42:51.862Z,87.63
2023-01-13T18:45:38.433Z,88.24
2023-01-13T18:48:23.953Z,88.17
2023-01-13T18:51:09.350Z,88.01
2023-01-13T18:53:54.887Z,88.73
2023-01-13T18:56:40.346Z,88.31
2023-01-13T18:59:26.741Z,88.36
2023-01-13T19:02:21.417Z,88.38
2023-01-13T19:05:07.669Z,88.40
2023-01-13T19:07:53.787Z,88.64
2023-01-13T19:10:39.773Z,88.15
2023-01-13T19:13:25.455Z,88.40
2023-01-13T19:16:11.293Z,88.33
2023-01-13T19:18:56.904Z,88.12
2023-01-13T19:21:42.322Z,88.20
2023-01-13T19:24:27.865Z,88.03
2023-01-13T19:27:15.137Z,87.52
2023-01-13T19:30:01.868Z,87.78
2023-01-13T19:32:48.459Z,88.08
2023-01-13T19:35:37.344Z,87.71
2023-01-13T19:38:24.655Z,87.91
2023-01-13T19:41:33.579Z,87.62
2023-01-13T19:44:38.101Z,87.75
2023-01-13T19:47:25.296Z,88.55
2023-01-13T19:50:11.554Z,88.79
2023-01-13T19:52:57.495Z,87.90
2023-01-13T19:55:48.668Z,88.11
2023-01-13T19:58:35.185Z,88.49
2023-01-13T20:01:21.378Z,88.30
2023-01-13T20:04:14.215Z,88.14
2023-01-13T20:07:00.922Z,87.90
2023-01-13T20:09:46.513Z,87.78
2023-01-13T20:12:31.920Z,87.69
2023-01-13T20:15:17.529Z,87.83
2023-01-13T20:18:03.491Z,87.45
2023-01-13T20:20:49.239Z,87.30
2023-01-13T20:23:34.695Z,87.59
2023-01-13T20:26:22.845Z,87.64
2023-01-13T20:29:08.257Z,87.26
2023-01-13T20:31:54.491Z,87.75
2023-01-13T20:34:40.195Z,87.01
2023-01-13T20:37:26.378Z,87.71
2023-01-13T20:40:15.097Z,87.83
2023-01-13T20:43:00.991Z,87.29
2023-01-13T20:45:46.658Z,87.45
2023-01-13T20:48:32.076Z,87.69
2023-01-13T20:51:17.712Z,87.41
2023-01-13T20:54:03.547Z,87.22
2023-01-13T20:56:49.150Z,87.55
2023-01-13T20:59:35.057Z,87.35
2023-01-13T21:02:22.713Z,86.66
2023-01-13T21:05:09.689Z,86.94
2023-01-13T21:07:55.447Z,87.31
2023-01-13T21:10:40.859Z,87.29
2023-01-13T21:13:45.771Z,87.54
2023-01-13T21:16:31.298Z,87.57
2023-01-13T21:19:16.985Z,87.07
2023-01-13T21:22:04.073Z,87.91
2023-01-13T21:24:49.522Z,87.40
2023-01-13T21:27:34.865Z,87.51
2023-01-13T21:30:20.488Z,87.34
2023-01-13T21:33:07.654Z,87.07
2023-01-13T21:35:53.106Z,86.77
2023-01-13T21:38:38.962Z,87.55
2023-01-13T21:41:44.420Z,86.86
2023-01-13T21:44:48.684Z,86.46
2023-01-13T21:47:49.722Z,86.84
2023-01-13T21:50:37.997Z,87.32
2023-01-13T21:53:23.334Z,87.25
2023-01-13T21:56:08.711Z,86.70
2023-01-13T21:58:57.320Z,86.94
2023-01-13T22:02:04.775Z,86.74
2023-01-13T22:04:48.351Z,86.65
2023-01-13T22:07:36.132Z,87.23
2023-01-13T22:10:27.371Z,87.12
2023-01-13T22:13:31.582Z,86.89
2023-01-13T22:16:17.343Z,87.58
2023-01-13T22:19:03.204Z,87.56
2023-01-13T22:21:48.977Z,87.06
2023-01-13T22:24:34.333Z,87.14
2023-01-13T22:27:25.029Z,87.67
2023-01-13T22:30:15.937Z,87.41
2023-01-13T22:33:01.301Z,87.75
2023-01-13T22:35:54.454Z,87.10
2023-01-13T22:38:41.213Z,87.80
2023-01-13T22:41:27.085Z,87.80
2023-01-13T22:44:12.241Z,87.52
2023-01-13T22:46:57.635Z,87.63
2023-01-13T22:49:47.546Z,87.69
2023-01-13T22:52:34.528Z,87.49
2023-01-13T22:55:20.142Z,87.28
2023-01-13T22:58:06.003Z,87.41
2023-01-13T23:00:52.289Z,87.02
2023-01-13T23:03:38.024Z,87.49
2023-01-13T23:06:25.545Z,87.08
2023-01-13T23:09:11.567Z,87.29
2023-01-13T23:11:58.856Z,87.13
2023-01-13T23:14:44.531Z,87.17
2023-01-13T23:17:30.302Z,87.52
2023-01-13T23:20:16.312Z,87.10
2023-01-13T23:23:02.235Z,87.68
2023-01-13T23:25:53.600Z,87.41
2023-01-13T23:28:39.554Z,88.06
2023-01-13T23:31:25.129Z,87.56
2023-01-13T23:34:10.516Z,86.96
2023-01-13T23:36:55.884Z,87.02
2023-01-13T23:39:41.212Z,87.17
2023-01-13T23:42:26.564Z,87.35
2023-01-13T23:45:12.331Z,87.09
2023-01-13T23:47:57.793Z,86.63
2023-01-13T23:50:43.379Z,87.09
2023-01-13T23:53:33.596Z,87.14
2023-01-13T23:56:24.819Z,87.11
2023-01-13T23:59:10.373Z,86.68
